createdAt,value
2018-11-07T00:00:02.703Z,11.40
2018-11-07T00:02:31.536Z,12.40
2018-11-07T00:05:00.684Z,11.60
2018-11-07T00:07:29.314Z,14.20
2018-11-07T00:09:59.530Z,14.90
2018-11-07T00:12:28.962Z,13.87
2018-11-07T00:14:58.655Z,16.40
2018-11-07T00:17:27.866Z,14.40
2018-11-07T00:19:56.530Z,15.07
2018-11-07T00:22:25.613Z,16.57
2018-11-07T00:24:54.314Z,16.40
2018-11-07T00:27:23.033Z,17.90
2018-11-07T00:29:52.246Z,19.47
2018-11-07T00:32:20.876Z,19.73
2018-11-07T00:34:51.273Z,19.63
2018-11-07T00:37:19.991Z,18.87
2018-11-07T00:39:49.191Z,21.40
2018-11-07T00:42:19.700Z,19.23
2018-11-07T00:44:48.419Z,19.80
2018-11-07T00:47:17.047Z,19.60
2018-11-07T00:49:45.879Z,19.57
2018-11-07T00:52:16.014Z,21.63
2018-11-07T00:54:44.682Z,17.70
2018-11-07T00:57:14.054Z,19.67
2018-11-07T00:59:43.891Z,20.30
2018-11-07T01:02:13.460Z,19.40
2018-11-07T01:04:42.760Z,20.57
2018-11-07T01:07:11.443Z,19.67
2018-11-07T01:09:40.246Z,19.83
2018-11-07T01:12:09.582Z,20.07
2018-11-07T01:14:38.906Z,21.60
2018-11-07T01:17:07.576Z,19.47
2018-11-07T01:19:36.934Z,18.67
2018-11-07T01:22:06.294Z,19.37
2018-11-07T01:24:35.537Z,20.10
2018-11-07T01:27:04.913Z,20.17
2018-11-07T01:29:34.231Z,18.80
2018-11-07T01:32:04.036Z,19.60
2018-11-07T01:34:32.686Z,19.80
2018-11-07T01:37:01.287Z,20.53
2018-11-07T01:39:29.938Z,17.27
2018-11-07T01:41:59.258Z,16.90
2018-11-07T01:44:27.919Z,18.50
2018-11-07T01:46:56.560Z,18.77
2018-11-07T01:49:25.902Z,16.87
2018-11-07T01:51:55.031Z,16.23
2018-11-07T01:54:23.618Z,15.50
2018-11-07T01:56:52.287Z,17.33
2018-11-07T01:59:21.568Z,18.03
2018-11-07T02:01:50.226Z,16.57
2018-11-07T02:04:19.559Z,16.40
2018-11-07T02:06:49.342Z,16.73
2018-11-07T02:09:18.057Z,17.00
2018-11-07T02:11:46.847Z,17.57
2018-11-07T02:14:15.622Z,18.00
2018-11-07T02:16:44.922Z,16.50
2018-11-07T02:19:16.081Z,14.67
2018-11-07T02:21:45.939Z,16.23
2018-11-07T02:24:14.630Z,14.00
2018-11-07T02:26:43.834Z,16.70
2018-11-07T02:29:13.974Z,17.70
2018-11-07T02:31:44.783Z,15.27
2018-11-07T02:34:14.003Z,15.07
2018-11-07T02:36:43.000Z,14.97
2018-11-07T02:39:14.815Z,14.77
2018-11-07T02:41:45.249Z,16.40
2018-11-07T02:44:14.450Z,14.17
2018-11-07T02:46:43.679Z,15.77
2018-11-07T02:49:13.075Z,16.23
2018-11-07T02:51:42.986Z,14.10
2018-11-07T02:54:12.078Z,13.90
2018-11-07T02:56:41.361Z,14.90
2018-11-07T02:59:10.010Z,15.13
2018-11-07T03:01:39.808Z,15.13
2018-11-07T03:04:08.482Z,14.07
2018-11-07T03:06:37.098Z,15.87
2018-11-07T03:09:08.418Z,13.40
2018-11-07T03:11:38.597Z,13.67
2018-11-07T03:14:08.420Z,15.27
2018-11-07T03:16:37.438Z,15.17
2018-11-07T03:19:06.395Z,15.77
2018-11-07T03:21:35.026Z,14.33
2018-11-07T03:24:03.788Z,15.40
2018-11-07T03:26:32.390Z,14.47
2018-11-07T03:29:01.727Z,13.90
2018-11-07T03:31:30.443Z,13.73
2018-11-07T03:33:59.829Z,13.30
2018-11-07T03:36:28.527Z,13.60
2018-11-07T03:38:57.154Z,13.80
2018-11-07T03:41:25.974Z,13.00
2018-11-07T03:43:55.298Z,13.33
2018-11-07T03:46:24.539Z,13.13
2018-11-07T03:48:53.246Z,14.20
2018-11-07T03:51:21.970Z,13.70
2018-11-07T03:53:50.595Z,12.80
2018-11-07T03:56:19.287Z,13.20
2018-11-07T03:58:47.970Z,13.00
2018-11-07T04:01:16.692Z,10.90
2018-11-07T04:03:47.039Z,11.70
2018-11-07T04:06:15.770Z,10.80
2018-11-07T04:08:45.606Z,9.67
2018-11-07T04:11:14.979Z,9.00
2018-11-07T04:13:44.307Z,8.10
2018-11-07T04:16:12.967Z,7.33
2018-11-07T04:18:42.722Z,6.63
2018-11-07T04:21:11.538Z,6.50
2018-11-07T04:23:41.670Z,8.00
2018-11-07T04:26:10.950Z,9.03
2018-11-07T04:28:40.071Z,11.10
2018-11-07T04:31:09.389Z,10.30
2018-11-07T04:33:39.198Z,11.30
2018-11-07T04:36:08.124Z,11.57
2018-11-07T04:38:36.753Z,11.37
2018-11-07T04:41:06.087Z,11.80
2018-11-07T04:43:35.372Z,10.10
2018-11-07T04:46:04.084Z,10.83
2018-11-07T04:48:32.812Z,9.13
2018-11-07T04:51:02.157Z,10.17
2018-11-07T04:53:32.011Z,10.80
2018-11-07T04:56:00.634Z,11.90
2018-11-07T04:58:29.421Z,11.63
2018-11-07T05:00:58.226Z,11.43
2018-11-07T05:03:27.017Z,11.53
2018-11-07T05:05:56.155Z,11.70
2018-11-07T05:08:25.002Z,10.90
2018-11-07T05:10:53.695Z,10.47
2018-11-07T05:13:22.872Z,9.80
2018-11-07T05:15:52.555Z,8.20
2018-11-07T05:18:22.527Z,9.30
2018-11-07T05:20:51.854Z,9.10
2018-11-07T05:23:21.612Z,9.20
2018-11-07T05:25:50.303Z,9.50
2018-11-07T05:28:19.594Z,10.30
2018-11-07T05:30:48.220Z,9.33
2018-11-07T05:33:16.923Z,10.63
2018-11-07T05:35:46.176Z,9.63
2018-11-07T05:38:15.354Z,9.90
2018-11-07T05:40:45.435Z,10.43
2018-11-07T05:43:15.158Z,10.63
2018-11-07T05:45:43.888Z,10.63
2018-11-07T05:48:13.070Z,11.63
2018-11-07T05:50:41.794Z,11.70
2018-11-07T05:53:10.454Z,11.43
2018-11-07T05:55:39.643Z,12.60
2018-11-07T05:58:08.739Z,10.30
2018-11-07T06:00:37.538Z,10.80
2018-11-07T06:03:06.855Z,11.20
2018-11-07T06:05:35.465Z,10.70
2018-11-07T06:08:04.125Z,11.70
2018-11-07T06:10:32.817Z,10.87
2018-11-07T06:13:02.446Z,12.07
2018-11-07T06:15:31.078Z,10.27
2018-11-07T06:18:00.299Z,11.10
2018-11-07T06:20:28.959Z,11.57
2018-11-07T06:22:57.681Z,10.50
2018-11-07T06:25:26.487Z,11.27
2018-11-07T06:27:55.139Z,11.23
2018-11-07T06:30:24.330Z,13.20
2018-11-07T06:32:53.003Z,12.57
2018-11-07T06:35:22.094Z,13.03
2018-11-07T06:37:50.786Z,12.60
2018-11-07T06:40:19.586Z,12.40
2018-11-07T06:42:48.198Z,13.73
2018-11-07T06:45:18.255Z,13.63
2018-11-07T06:47:47.421Z,13.67
2018-11-07T06:50:17.320Z,13.53
2018-11-07T06:52:47.671Z,13.97
2018-11-07T06:55:17.072Z,13.60
2018-11-07T06:57:57.233Z,14.80
2018-11-07T07:00:26.283Z,14.40
2018-11-07T07:02:54.943Z,14.50
2018-11-07T07:05:23.622Z,13.70
2018-11-07T07:07:52.323Z,15.10
2018-11-07T07:10:21.514Z,17.70
2018-11-07T07:12:51.551Z,13.63
2018-11-07T07:15:20.998Z,15.70
2018-11-07T07:17:49.628Z,13.57
2018-11-07T07:20:20.226Z,14.30
2018-11-07T07:22:49.504Z,13.70
2018-11-07T07:25:19.014Z,14.30
2018-11-07T07:27:47.918Z,14.07
2018-11-07T07:30:19.500Z,14.40
2018-11-07T07:32:49.086Z,15.13
2018-11-07T07:35:18.572Z,12.80
2018-11-07T07:37:47.820Z,15.50
2018-11-07T07:40:16.979Z,13.10
2018-11-07T07:42:46.298Z,14.00
2018-11-07T07:45:16.415Z,14.10
2018-11-07T07:47:45.373Z,13.93
2018-11-07T07:50:15.179Z,14.43
2018-11-07T08:33:06.794Z,15.90
2018-11-07T08:35:35.390Z,14.40
2018-11-07T08:38:04.028Z,14.60
2018-11-07T08:40:33.146Z,13.80
2018-11-07T08:43:01.745Z,13.67
2018-11-07T08:45:30.364Z,14.40
2018-11-07T08:47:59.010Z,12.47
2018-11-07T08:50:27.612Z,13.27
2018-11-07T08:52:56.236Z,11.87
2018-11-07T08:55:24.843Z,13.37
2018-11-07T08:57:54.619Z,12.13
2018-11-07T09:00:24.071Z,12.60
2018-11-07T09:02:52.732Z,12.80
2018-11-07T09:05:22.124Z,12.40
2018-11-07T09:07:50.850Z,13.03
2018-11-07T09:12:57.426Z,11.40
2018-11-07T09:15:26.032Z,10.30
2018-11-07T09:17:54.642Z,13.00
2018-11-07T09:20:24.187Z,12.20
2018-11-07T09:22:52.820Z,11.10
2018-11-07T09:25:21.435Z,11.93
2018-11-07T09:27:50.071Z,10.77
2018-11-07T09:30:20.862Z,10.30
2018-11-07T09:32:49.478Z,9.70
2018-11-07T09:35:18.547Z,9.33
2018-11-07T09:37:47.178Z,8.50
2018-11-07T09:40:19.019Z,8.13
2018-11-07T09:42:48.166Z,7.07
2018-11-07T09:45:18.087Z,7.17
2018-11-07T09:47:47.297Z,7.50
2018-11-07T09:50:16.693Z,6.90
2018-11-07T09:52:45.539Z,6.77
2018-11-07T09:55:16.426Z,7.10
2018-11-07T09:57:45.318Z,6.60
2018-11-07T10:00:15.770Z,7.30
2018-11-07T10:02:44.825Z,6.90
2018-11-07T10:05:14.158Z,8.07
2018-11-07T10:07:42.886Z,8.43
2018-11-07T10:10:13.710Z,8.27
2018-11-07T10:12:42.759Z,7.30
2018-11-07T10:15:11.939Z,6.97
2018-11-07T11:53:26.440Z,11.80
2018-11-07T11:56:07.670Z,10.23
2018-11-07T11:58:48.338Z,11.00
2018-11-07T12:01:33.069Z,11.20
2018-11-07T12:04:15.221Z,11.40
2018-11-07T12:06:54.620Z,11.60
2018-11-07T12:09:35.097Z,11.10
2018-11-07T12:12:15.771Z,13.33
2018-11-07T12:14:55.414Z,11.20
2018-11-07T12:17:24.369Z,11.93
2018-11-07T12:19:52.964Z,12.80
2018-11-07T12:22:21.555Z,10.80
2018-11-07T12:24:50.194Z,12.17
2018-11-07T12:27:18.803Z,12.33
2018-11-07T12:29:47.404Z,13.57
2018-11-07T12:32:16.018Z,13.20
2018-11-07T12:34:44.626Z,13.17
2018-11-07T12:37:13.268Z,13.77
2018-11-07T12:39:41.885Z,12.47
2018-11-07T12:42:10.522Z,14.67
2018-11-07T12:44:39.148Z,16.17
2018-11-07T12:47:07.750Z,15.57
2018-11-07T12:49:36.375Z,15.17
2018-11-07T12:52:05.218Z,15.30
2018-11-07T12:54:33.839Z,14.07
2018-11-07T12:57:02.490Z,15.70
2018-11-07T12:59:31.115Z,14.00
2018-11-07T13:01:59.735Z,16.20
2018-11-07T13:04:28.344Z,14.60
2018-11-07T13:06:56.967Z,16.80
2018-11-07T13:09:25.615Z,15.43
2018-11-07T13:11:54.227Z,15.57
2018-11-07T13:14:22.858Z,15.50
2018-11-07T13:16:51.459Z,15.53
2018-11-07T13:19:20.110Z,15.00
2018-11-07T13:21:48.702Z,15.17
2018-11-07T13:24:17.313Z,15.27
2018-11-07T13:26:45.942Z,15.50
2018-11-07T13:29:14.554Z,14.80
2018-11-07T13:31:43.179Z,16.67
2018-11-07T13:34:11.783Z,17.90
2018-11-07T13:36:40.449Z,18.20
2018-11-07T13:39:11.185Z,15.93
2018-11-07T13:41:39.646Z,19.57
2018-11-07T13:44:08.289Z,15.47
2018-11-07T13:46:36.995Z,18.90
2018-11-07T13:49:06.007Z,16.93
2018-11-07T13:51:35.014Z,17.60
2018-11-07T13:54:03.647Z,17.53
2018-11-07T13:56:32.270Z,17.20
2018-11-07T13:59:00.925Z,17.80
2018-11-07T14:01:30.170Z,17.20
2018-11-07T14:03:58.807Z,17.50
2018-11-07T14:06:27.413Z,16.83
2018-11-07T14:08:56.018Z,17.30
2018-11-07T14:11:24.671Z,15.37
2018-11-07T14:13:53.390Z,16.53
2018-11-07T14:16:22.064Z,14.93
2018-11-07T14:18:50.677Z,16.67
2018-11-07T14:21:19.304Z,15.90
2018-11-07T14:23:47.935Z,16.23
2018-11-07T14:26:16.599Z,15.77
2018-11-07T14:28:45.307Z,18.20
2018-11-07T14:31:13.914Z,17.30
2018-11-07T14:33:42.536Z,17.33
2018-11-07T14:36:11.160Z,15.97
2018-11-07T14:38:39.802Z,14.70
2018-11-07T14:41:08.382Z,16.90
2018-11-07T14:43:37.010Z,16.40
2018-11-07T14:46:05.689Z,15.67
2018-11-07T14:48:34.323Z,16.27
2018-11-07T14:51:02.935Z,15.00
2018-11-07T14:53:31.582Z,16.30
2018-11-07T14:56:00.191Z,15.47
2018-11-07T14:58:28.796Z,16.33
2018-11-07T15:00:57.382Z,15.87
2018-11-07T15:03:25.986Z,15.70
2018-11-07T15:05:54.626Z,16.03
2018-11-07T15:08:23.340Z,16.20
2018-11-07T15:10:51.858Z,16.70
2018-11-07T15:13:20.450Z,14.90
2018-11-07T15:15:49.070Z,15.60
2018-11-07T15:18:17.698Z,15.53
2018-11-07T15:20:46.300Z,16.10
2018-11-07T15:23:14.907Z,16.37
2018-11-07T15:25:43.518Z,17.73
2018-11-07T15:28:12.177Z,18.70
2018-11-07T15:30:40.783Z,18.27
2018-11-07T15:33:09.387Z,20.37
2018-11-07T15:35:38.019Z,19.30
2018-11-07T15:38:06.619Z,19.53
2018-11-07T15:40:35.214Z,18.87
2018-11-07T15:43:03.866Z,20.67
2018-11-07T15:45:32.492Z,22.30
2018-11-07T15:48:01.091Z,21.60
2018-11-07T15:50:34.869Z,18.60
2018-11-07T15:53:03.519Z,21.03
2018-11-07T15:55:32.127Z,20.40
2018-11-07T15:58:00.746Z,20.33
2018-11-07T16:00:29.378Z,22.50
2018-11-07T16:03:00.970Z,21.27
2018-11-07T16:05:29.598Z,22.10
2018-11-07T16:07:58.306Z,20.80
2018-11-07T16:10:27.017Z,20.27
2018-11-07T16:12:55.555Z,24.63
2018-11-07T16:15:24.227Z,22.67
2018-11-07T16:17:52.787Z,21.33
2018-11-07T16:20:21.518Z,21.57
2018-11-07T16:22:50.456Z,22.87
2018-11-07T16:25:19.017Z,22.90
2018-11-07T16:27:47.661Z,22.07
2018-11-07T16:30:17.855Z,21.87
2018-11-07T16:32:46.451Z,23.07
2018-11-07T16:35:15.582Z,21.03
2018-11-07T16:37:44.581Z,20.80
2018-11-07T16:40:14.429Z,21.23
2018-11-07T16:42:44.143Z,20.80
2018-11-07T16:45:13.650Z,21.40
2018-11-07T16:47:42.627Z,21.10
2018-11-07T16:50:12.481Z,22.70
2018-11-07T16:52:41.186Z,22.63
2018-11-07T16:55:09.776Z,23.03
2018-11-07T16:57:38.954Z,21.13
2018-11-07T17:00:13.441Z,22.13
2018-11-07T17:02:42.660Z,22.17
2018-11-07T17:05:12.040Z,23.63
2018-11-07T17:07:41.227Z,21.43
2018-11-07T17:10:10.995Z,23.90
2018-11-07T17:12:39.604Z,20.87
2018-11-07T17:15:08.528Z,24.33
2018-11-07T17:17:38.333Z,21.87
2018-11-07T17:20:08.588Z,22.80
2018-11-07T17:22:37.206Z,23.03
2018-11-07T17:25:07.679Z,24.20
2018-11-07T17:27:36.292Z,25.33
2018-11-07T17:30:05.913Z,23.73
2018-11-07T17:32:34.518Z,24.33
2018-11-07T17:35:03.128Z,25.77
2018-11-07T17:37:31.759Z,24.83
2018-11-07T17:40:00.374Z,23.77
2018-11-07T17:42:28.981Z,25.50
2018-11-07T17:44:57.598Z,27.13
2018-11-07T17:47:26.191Z,25.80
2018-11-07T17:49:54.795Z,25.63
2018-11-07T17:52:23.413Z,26.53
2018-11-07T17:54:52.042Z,26.70
2018-11-07T17:57:20.667Z,26.03
2018-11-07T17:59:49.274Z,27.20
2018-11-07T18:02:17.923Z,25.60
2018-11-07T18:04:46.520Z,27.13
2018-11-07T18:07:15.121Z,25.97
2018-11-07T18:09:43.757Z,26.20
2018-11-07T18:12:12.351Z,25.70
2018-11-07T18:14:41.072Z,27.90
2018-11-07T18:17:09.695Z,26.67
2018-11-07T18:19:38.282Z,27.20
2018-11-07T18:22:06.940Z,29.20
2018-11-07T18:24:35.563Z,28.27
2018-11-07T18:27:04.224Z,26.90
2018-11-07T18:29:32.842Z,25.80
2018-11-07T18:32:01.471Z,27.50
2018-11-07T18:34:30.063Z,25.03
2018-11-07T18:36:58.662Z,27.40
2018-11-07T18:39:27.286Z,25.40
2018-11-07T18:41:55.887Z,25.00
2018-11-07T18:44:24.580Z,24.13
2018-11-07T18:46:53.119Z,23.87
2018-11-07T18:49:21.790Z,23.43
2018-11-07T18:51:50.423Z,23.73
2018-11-07T18:54:19.062Z,22.40
2018-11-07T18:56:47.671Z,22.87
2018-11-07T18:59:16.332Z,24.10
2018-11-07T19:01:44.949Z,22.43
2018-11-07T19:04:13.610Z,21.20
2018-11-07T19:06:42.349Z,22.20
2018-11-07T19:09:11.043Z,22.70
2018-11-07T19:11:39.718Z,23.20
2018-11-07T19:14:08.362Z,22.37
2018-11-07T19:16:36.972Z,24.50
2018-11-07T19:19:05.798Z,24.97
2018-11-07T19:21:34.466Z,23.40
2018-11-07T19:24:03.209Z,22.23
2018-11-07T19:26:31.743Z,23.50
2018-11-07T19:29:00.336Z,23.67
2018-11-07T19:31:28.948Z,22.67
2018-11-07T19:33:57.578Z,23.17
2018-11-07T19:36:26.190Z,22.00
2018-11-07T19:39:04.392Z,23.77
2018-11-07T19:41:32.983Z,24.07
2018-11-07T19:44:01.597Z,24.40
2018-11-07T19:46:30.206Z,24.00
2018-11-07T19:48:58.822Z,24.40
2018-11-07T19:51:27.437Z,24.80
2018-11-07T19:53:56.105Z,23.67
2018-11-07T19:56:24.827Z,23.47
2018-11-07T19:58:53.762Z,24.80
2018-11-07T20:01:22.380Z,25.13
2018-11-07T20:03:50.994Z,26.47
2018-11-07T20:06:19.606Z,27.50
2018-11-07T20:08:48.307Z,27.10
2018-11-07T20:11:16.911Z,23.87
2018-11-07T20:13:45.545Z,25.87
2018-11-07T20:16:14.155Z,26.47
2018-11-07T20:18:42.743Z,25.70
2018-11-07T20:21:11.354Z,26.30
2018-11-07T20:23:39.953Z,26.73
2018-11-07T20:26:08.582Z,25.60
2018-11-07T20:28:37.177Z,26.20
2018-11-07T20:31:06.067Z,27.80
2018-11-07T20:33:34.700Z,27.33
2018-11-07T20:36:03.345Z,24.43
2018-11-07T20:38:31.939Z,25.20
2018-11-07T20:41:00.560Z,25.87
2018-11-07T20:43:29.155Z,25.43
2018-11-07T20:45:57.782Z,28.10
2018-11-07T20:48:26.385Z,27.00
2018-11-07T20:50:55.008Z,28.43
2018-11-07T20:53:23.626Z,26.50
2018-11-07T20:55:52.238Z,26.57
2018-11-07T20:58:20.910Z,24.20
2018-11-07T21:00:49.543Z,26.53
2018-11-07T21:03:18.167Z,25.27
2018-11-07T21:05:46.799Z,27.80
2018-11-07T21:08:15.398Z,28.63
2018-11-07T21:10:44.025Z,26.67
2018-11-07T21:13:12.626Z,26.10
2018-11-07T21:15:41.254Z,25.13
2018-11-07T21:18:09.995Z,23.30
2018-11-07T21:20:38.605Z,24.27
2018-11-07T21:23:07.218Z,24.37
2018-11-07T21:25:35.926Z,23.37
2018-11-07T21:28:04.523Z,24.23
2018-11-07T21:30:33.155Z,25.57
2018-11-07T21:33:01.798Z,22.87
2018-11-07T21:35:30.412Z,22.83
2018-11-07T21:37:59.023Z,23.47
2018-11-07T21:40:27.617Z,22.63
2018-11-07T21:42:56.259Z,23.90
2018-11-07T21:45:24.876Z,24.37
2018-11-07T21:47:53.482Z,27.43
2018-11-07T21:50:28.767Z,25.10
2018-11-07T21:52:57.370Z,25.57
2018-11-07T21:55:26.017Z,26.13
2018-11-07T21:57:54.626Z,25.93
2018-11-07T22:00:23.227Z,26.33
2018-11-07T22:02:51.924Z,28.83
2018-11-07T22:05:20.470Z,29.70
2018-11-07T22:07:49.091Z,28.63
2018-11-07T22:10:18.609Z,28.10
2018-11-07T22:12:47.209Z,28.60
2018-11-07T22:15:15.825Z,26.07
2018-11-07T22:17:44.529Z,28.20
2018-11-07T22:20:16.705Z,28.07
2018-11-07T22:22:45.613Z,29.57
2018-11-07T22:25:14.506Z,28.67
2018-11-07T22:27:43.211Z,28.10
2018-11-07T22:30:13.718Z,26.90
2018-11-07T22:32:42.422Z,28.27
2018-11-07T22:35:13.251Z,27.23
2018-11-07T22:37:42.228Z,25.90
2018-11-07T22:40:12.775Z,23.17
2018-11-07T22:42:41.402Z,22.43
2018-11-07T22:45:11.059Z,21.90
2018-11-07T22:47:40.042Z,21.00
2018-11-07T22:50:10.490Z,20.73
2018-11-07T22:52:39.361Z,19.27
2018-11-07T22:55:08.583Z,18.10
2018-11-07T22:57:37.263Z,21.00
2018-11-07T23:00:18.039Z,17.90
2018-11-07T23:02:46.915Z,17.40
2018-11-07T23:05:15.794Z,15.97
2018-11-07T23:07:44.423Z,16.90
2018-11-07T23:10:13.142Z,16.77
2018-11-07T23:12:41.795Z,16.33
2018-11-07T23:15:10.488Z,17.17
2018-11-07T23:17:39.123Z,16.10
2018-11-07T23:20:09.110Z,16.43
2018-11-07T23:22:37.714Z,16.17
2018-11-07T23:25:06.877Z,14.67
2018-11-07T23:27:35.478Z,14.37
2018-11-07T23:30:04.443Z,14.20
2018-11-07T23:32:33.045Z,14.70
2018-11-07T23:35:01.639Z,13.07
2018-11-07T23:37:30.267Z,12.27
2018-11-07T23:39:58.873Z,12.37
2018-11-07T23:42:27.615Z,12.27
2018-11-07T23:44:56.234Z,13.23
2018-11-07T23:47:24.861Z,12.70
2018-11-07T23:49:53.475Z,12.90
2018-11-07T23:52:27.562Z,13.00
2018-11-07T23:54:56.206Z,11.00
2018-11-07T23:57:24.854Z,11.00
2018-11-07T23:59:53.405Z,11.17
